Dunmore, West Virginia
Current Conditions -  °F | °C
As of 9:55 PM on Friday 31 Oct 2014 (Local Time) from KHSP Reporting Station
Drizzle Drizzle  
Wind Chill: 30°   Ceiling: 300
Heat Index: 35°   Visibility: 0.75mi
Dew Point: 35°   Wind: 6mph
Humidity: 100%   Direction: 280°W
Pressure: 29.77"   Gusts: NA
Location:  38.36°N, 79.88°W
Report Text: KHSP 010155Z AUTO 28005KT 3/4SM DZ OVC003 02/02 A2977 RMK AO2 P0001 T00150015
Loading
Personal Weather Stations






























Interactive Weather Map
Tropical Storm Tracking
New forecast layout! Learn more

10-Day Weather Forecast

Advertisements
Track Severe Weather on mobile